sensor_id;sensor_type;location;lat;lon;timestamp;P1;durP1;ratioP1;P2;durP2;ratioP2
3141;SDS011;1581;51.568;6.998;2023-02-22T00:01:11;68.03;;;27.07;;
3141;SDS011;1581;51.568;6.998;2023-02-22T00:03:52;71.13;;;27.73;;
3141;SDS011;1581;51.568;6.998;2023-02-22T00:06:22;63.47;;;27.53;;
3141;SDS011;1581;51.568;6.998;2023-02-22T00:08:51;70.90;;;27.00;;
3141;SDS011;1581;51.568;6.998;2023-02-22T00:11:22;72.90;;;28.70;;
3141;SDS011;1581;51.568;6.998;2023-02-22T00:13:52;77.37;;;30.07;;
3141;SDS011;1581;51.568;6.998;2023-02-22T00:16:23;65.47;;;26.90;;
3141;SDS011;1581;51.568;6.998;2023-02-22T00:18:53;62.20;;;26.70;;
3141;SDS011;1581;51.568;6.998;2023-02-22T00:21:23;69.27;;;27.40;;
3141;SDS011;1581;51.568;6.998;2023-02-22T00:23:56;63.73;;;26.73;;
3141;SDS011;1581;51.568;6.998;2023-02-22T00:26:33;65.13;;;27.30;;
3141;SDS011;1581;51.568;6.998;2023-02-22T00:29:04;66.47;;;25.60;;
3141;SDS011;1581;51.568;6.998;2023-02-22T00:31:36;66.30;;;26.30;;
3141;SDS011;1581;51.568;6.998;2023-02-22T00:34:05;62.57;;;24.40;;
3141;SDS011;1581;51.568;6.998;2023-02-22T00:36:35;58.17;;;25.60;;
3141;SDS011;1581;51.568;6.998;2023-02-22T00:39:06;57.00;;;22.87;;
3141;SDS011;1581;51.568;6.998;2023-02-22T00:41:37;64.03;;;26.20;;
3141;SDS011;1581;51.568;6.998;2023-02-22T00:44:07;59.00;;;24.37;;
3141;SDS011;1581;51.568;6.998;2023-02-22T00:46:37;64.07;;;25.63;;
3141;SDS011;1581;51.568;6.998;2023-02-22T00:49:06;64.33;;;24.47;;
3141;SDS011;1581;51.568;6.998;2023-02-22T00:51:36;73.63;;;27.13;;
3141;SDS011;1581;51.568;6.998;2023-02-22T00:54:05;66.73;;;26.47;;
3141;SDS011;1581;51.568;6.998;2023-02-22T00:56:35;66.37;;;25.33;;
3141;SDS011;1581;51.568;6.998;2023-02-22T00:59:06;70.60;;;26.73;;
3141;SDS011;1581;51.568;6.998;2023-02-22T01:01:35;64.70;;;25.43;;
3141;SDS011;1581;51.568;6.998;2023-02-22T01:04:05;68.27;;;25.20;;
3141;SDS011;1581;51.568;6.998;2023-02-22T01:06:35;64.27;;;23.50;;
3141;SDS011;1581;51.568;6.998;2023-02-22T01:09:04;59.73;;;24.00;;
3141;SDS011;1581;51.568;6.998;2023-02-22T01:11:33;56.27;;;23.27;;
3141;SDS011;1581;51.568;6.998;2023-02-22T01:14:06;56.70;;;24.50;;
3141;SDS011;1581;51.568;6.998;2023-02-22T01:16:36;61.57;;;24.50;;
3141;SDS011;1581;51.568;6.998;2023-02-22T01:19:05;62.27;;;24.17;;
3141;SDS011;1581;51.568;6.998;2023-02-22T01:21:36;69.70;;;24.93;;
3141;SDS011;1581;51.568;6.998;2023-02-22T01:24:07;61.40;;;24.70;;
3141;SDS011;1581;51.568;6.998;2023-02-22T01:26:43;62.47;;;22.57;;
3141;SDS011;1581;51.568;6.998;2023-02-22T01:29:18;62.70;;;24.07;;
3141;SDS011;1581;51.568;6.998;2023-02-22T01:31:51;70.73;;;24.97;;
3141;SDS011;1581;51.568;6.998;2023-02-22T01:34:23;70.93;;;26.47;;
3141;SDS011;1581;51.568;6.998;2023-02-22T01:36:53;68.10;;;25.63;;
3141;SDS011;1581;51.568;6.998;2023-02-22T01:39:23;65.80;;;25.47;;
3141;SDS011;1581;51.568;6.998;2023-02-22T01:41:54;65.40;;;25.10;;
3141;SDS011;1581;51.568;6.998;2023-02-22T01:44:26;64.97;;;25.00;;
3141;SDS011;1581;51.568;6.998;2023-02-22T01:46:57;71.70;;;25.70;;
3141;SDS011;1581;51.568;6.998;2023-02-22T01:49:28;82.37;;;27.63;;
3141;SDS011;1581;51.568;6.998;2023-02-22T01:52:03;73.50;;;27.07;;
3141;SDS011;1581;51.568;6.998;2023-02-22T01:54:36;70.17;;;26.73;;
3141;SDS011;1581;51.568;6.998;2023-02-22T01:57:13;70.90;;;25.30;;
3141;SDS011;1581;51.568;6.998;2023-02-22T01:59:48;86.60;;;28.37;;
3141;SDS011;1581;51.568;6.998;2023-02-22T02:02:21;88.50;;;28.93;;
3141;SDS011;1581;51.568;6.998;2023-02-22T02:04:52;101.10;;;32.37;;
3141;SDS011;1581;51.568;6.998;2023-02-22T02:07:23;96.93;;;31.43;;
3141;SDS011;1581;51.568;6.998;2023-02-22T02:09:56;98.77;;;31.00;;
3141;SDS011;1581;51.568;6.998;2023-02-22T02:12:28;130.17;;;31.70;;
3141;SDS011;1581;51.568;6.998;2023-02-22T02:17:49;132.47;;;33.10;;
3141;SDS011;1581;51.568;6.998;2023-02-22T02:20:21;146.63;;;36.33;;
3141;SDS011;1581;51.568;6.998;2023-02-22T02:22:57;208.90;;;35.57;;
3141;SDS011;1581;51.568;6.998;2023-02-22T02:28:55;216.10;;;35.10;;
3141;SDS011;1581;51.568;6.998;2023-02-22T02:34:48;176.57;;;28.17;;
3141;SDS011;1581;51.568;6.998;2023-02-22T02:37:25;385.87;;;29.90;;
3141;SDS011;1581;51.568;6.998;2023-02-22T02:40:05;195.00;;;26.77;;
3141;SDS011;1581;51.568;6.998;2023-02-22T02:42:47;367.50;;;30.50;;
3141;SDS011;1581;51.568;6.998;2023-02-22T02:45:25;457.20;;;30.80;;
3141;SDS011;1581;51.568;6.998;2023-02-22T02:48:03;255.93;;;24.27;;
3141;SDS011;1581;51.568;6.998;2023-02-22T02:50:36;474.30;;;34.40;;
3141;SDS011;1581;51.568;6.998;2023-02-22T02:53:10;311.50;;;28.77;;
3141;SDS011;1581;51.568;6.998;2023-02-22T02:55:42;237.30;;;29.27;;
3141;SDS011;1581;51.568;6.998;2023-02-22T02:58:15;157.70;;;26.90;;
3141;SDS011;1581;51.568;6.998;2023-02-22T03:00:45;263.03;;;27.90;;
3141;SDS011;1581;51.568;6.998;2023-02-22T03:03:21;386.37;;;29.33;;
3141;SDS011;1581;51.568;6.998;2023-02-22T03:09:57;338.63;;;32.60;;
3141;SDS011;1581;51.568;6.998;2023-02-22T03:12:42;261.60;;;27.47;;
3141;SDS011;1581;51.568;6.998;2023-02-22T03:15:22;381.70;;;32.60;;
3141;SDS011;1581;51.568;6.998;2023-02-22T03:18:04;331.70;;;29.87;;
3141;SDS011;1581;51.568;6.998;2023-02-22T03:20:43;203.10;;;27.17;;
3141;SDS011;1581;51.568;6.998;2023-02-22T03:23:20;403.10;;;36.80;;
3141;SDS011;1581;51.568;6.998;2023-02-22T03:25:54;224.53;;;26.60;;
3141;SDS011;1581;51.568;6.998;2023-02-22T03:28:28;230.23;;;30.90;;
3141;SDS011;1581;51.568;6.998;2023-02-22T03:30:59;249.00;;;30.03;;
3141;SDS011;1581;51.568;6.998;2023-02-22T03:33:32;160.40;;;27.50;;
3141;SDS011;1581;51.568;6.998;2023-02-22T03:36:08;325.37;;;32.00;;
3141;SDS011;1581;51.568;6.998;2023-02-22T03:38:42;327.03;;;31.70;;
3141;SDS011;1581;51.568;6.998;2023-02-22T03:41:11;270.47;;;32.40;;
3141;SDS011;1581;51.568;6.998;2023-02-22T03:43:45;353.27;;;33.97;;
3141;SDS011;1581;51.568;6.998;2023-02-22T03:46:16;279.77;;;30.80;;
3141;SDS011;1581;51.568;6.998;2023-02-22T03:48:45;242.23;;;29.50;;
3141;SDS011;1581;51.568;6.998;2023-02-22T03:51:19;337.47;;;31.70;;
3141;SDS011;1581;51.568;6.998;2023-02-22T03:53:48;186.20;;;30.17;;
3141;SDS011;1581;51.568;6.998;2023-02-22T03:56:17;223.40;;;29.57;;
3141;SDS011;1581;51.568;6.998;2023-02-22T03:58:50;300.17;;;33.30;;
3141;SDS011;1581;51.568;6.998;2023-02-22T04:01:18;163.50;;;28.33;;
3141;SDS011;1581;51.568;6.998;2023-02-22T04:03:47;303.47;;;28.60;;
3141;SDS011;1581;51.568;6.998;2023-02-22T04:06:15;333.17;;;31.80;;
3141;SDS011;1581;51.568;6.998;2023-02-22T04:08:44;151.80;;;24.90;;
3141;SDS011;1581;51.568;6.998;2023-02-22T04:11:12;230.80;;;30.87;;
3141;SDS011;1581;51.568;6.998;2023-02-22T04:13:39;212.43;;;29.10;;
3141;SDS011;1581;51.568;6.998;2023-02-22T04:16:07;220.70;;;30.10;;
3141;SDS011;1581;51.568;6.998;2023-02-22T04:18:35;349.40;;;33.30;;
3141;SDS011;1581;51.568;6.998;2023-02-22T04:21:02;257.03;;;29.47;;
3141;SDS011;1581;51.568;6.998;2023-02-22T04:23:30;441.53;;;36.00;;
3141;SDS011;1581;51.568;6.998;2023-02-22T04:25:59;359.20;;;29.50;;
3141;SDS011;1581;51.568;6.998;2023-02-22T04:28:27;434.33;;;32.03;;
3141;SDS011;1581;51.568;6.998;2023-02-22T04:30:55;366.93;;;30.47;;
3141;SDS011;1581;51.568;6.998;2023-02-22T04:33:22;505.43;;;37.57;;
3141;SDS011;1581;51.568;6.998;2023-02-22T04:35:50;481.83;;;35.07;;
3141;SDS011;1581;51.568;6.998;2023-02-22T04:38:18;434.90;;;32.33;;
3141;SDS011;1581;51.568;6.998;2023-02-22T04:40:45;482.43;;;33.40;;
3141;SDS011;1581;51.568;6.998;2023-02-22T04:43:14;425.00;;;30.07;;
3141;SDS011;1581;51.568;6.998;2023-02-22T04:45:42;525.20;;;37.47;;
3141;SDS011;1581;51.568;6.998;2023-02-22T04:48:10;416.00;;;29.30;;
3141;SDS011;1581;51.568;6.998;2023-02-22T04:50:38;260.03;;;25.30;;
3141;SDS011;1581;51.568;6.998;2023-02-22T04:53:05;403.43;;;30.70;;
3141;SDS011;1581;51.568;6.998;2023-02-22T04:55:33;388.53;;;26.30;;
3141;SDS011;1581;51.568;6.998;2023-02-22T04:58:01;291.50;;;23.57;;
3141;SDS011;1581;51.568;6.998;2023-02-22T05:00:30;238.60;;;25.40;;
3141;SDS011;1581;51.568;6.998;2023-02-22T05:02:58;211.00;;;29.77;;
3141;SDS011;1581;51.568;6.998;2023-02-22T05:05:26;320.67;;;28.93;;
3141;SDS011;1581;51.568;6.998;2023-02-22T05:07:53;347.90;;;38.00;;
3141;SDS011;1581;51.568;6.998;2023-02-22T05:10:21;195.43;;;30.73;;
3141;SDS011;1581;51.568;6.998;2023-02-22T05:12:49;359.63;;;34.93;;
3141;SDS011;1581;51.568;6.998;2023-02-22T05:15:18;342.70;;;36.37;;
3141;SDS011;1581;51.568;6.998;2023-02-22T05:17:50;198.77;;;31.37;;
3141;SDS011;1581;51.568;6.998;2023-02-22T05:20:22;262.60;;;38.77;;
3141;SDS011;1581;51.568;6.998;2023-02-22T05:22:53;291.27;;;40.63;;
3141;SDS011;1581;51.568;6.998;2023-02-22T05:25:21;257.93;;;42.13;;
3141;SDS011;1581;51.568;6.998;2023-02-22T05:27:50;114.57;;;36.67;;
3141;SDS011;1581;51.568;6.998;2023-02-22T05:30:18;266.47;;;39.23;;
3141;SDS011;1581;51.568;6.998;2023-02-22T05:32:48;145.63;;;36.63;;
3141;SDS011;1581;51.568;6.998;2023-02-22T05:35:19;154.13;;;32.37;;
3141;SDS011;1581;51.568;6.998;2023-02-22T05:37:48;243.73;;;34.47;;
3141;SDS011;1581;51.568;6.998;2023-02-22T05:40:17;220.83;;;32.30;;
3141;SDS011;1581;51.568;6.998;2023-02-22T05:42:45;182.57;;;29.43;;
3141;SDS011;1581;51.568;6.998;2023-02-22T05:45:13;210.50;;;30.00;;
3141;SDS011;1581;51.568;6.998;2023-02-22T05:47:42;147.77;;;27.43;;
3141;SDS011;1581;51.568;6.998;2023-02-22T05:50:12;107.47;;;24.10;;
3141;SDS011;1581;51.568;6.998;2023-02-22T05:52:40;168.50;;;27.50;;
3141;SDS011;1581;51.568;6.998;2023-02-22T05:55:09;129.73;;;27.13;;
3141;SDS011;1581;51.568;6.998;2023-02-22T05:57:40;88.60;;;22.90;;
3141;SDS011;1581;51.568;6.998;2023-02-22T06:00:08;68.07;;;22.50;;
3141;SDS011;1581;51.568;6.998;2023-02-22T06:02:41;106.27;;;23.50;;
3141;SDS011;1581;51.568;6.998;2023-02-22T06:05:09;74.27;;;21.40;;
3141;SDS011;1581;51.568;6.998;2023-02-22T06:07:39;107.27;;;21.97;;
3141;SDS011;1581;51.568;6.998;2023-02-22T06:10:06;194.07;;;24.13;;
3141;SDS011;1581;51.568;6.998;2023-02-22T06:12:34;93.73;;;21.60;;
3141;SDS011;1581;51.568;6.998;2023-02-22T06:15:02;149.07;;;22.67;;
3141;SDS011;1581;51.568;6.998;2023-02-22T06:17:30;116.37;;;23.20;;
3141;SDS011;1581;51.568;6.998;2023-02-22T06:19:58;66.90;;;21.40;;
3141;SDS011;1581;51.568;6.998;2023-02-22T06:22:27;84.60;;;23.07;;
3141;SDS011;1581;51.568;6.998;2023-02-22T06:24:54;67.53;;;21.30;;
3141;SDS011;1581;51.568;6.998;2023-02-22T06:27:22;58.70;;;21.57;;
3141;SDS011;1581;51.568;6.998;2023-02-22T06:29:50;74.00;;;21.07;;
3141;SDS011;1581;51.568;6.998;2023-02-22T06:32:18;100.10;;;23.07;;
3141;SDS011;1581;51.568;6.998;2023-02-22T06:34:45;75.63;;;19.17;;
3141;SDS011;1581;51.568;6.998;2023-02-22T06:37:13;79.60;;;23.70;;
3141;SDS011;1581;51.568;6.998;2023-02-22T06:39:42;66.40;;;23.00;;
3141;SDS011;1581;51.568;6.998;2023-02-22T06:42:10;96.17;;;25.57;;
3141;SDS011;1581;51.568;6.998;2023-02-22T06:44:38;128.83;;;25.60;;
3141;SDS011;1581;51.568;6.998;2023-02-22T06:47:05;66.97;;;29.87;;
3141;SDS011;1581;51.568;6.998;2023-02-22T06:49:34;85.40;;;29.90;;
3141;SDS011;1581;51.568;6.998;2023-02-22T06:52:03;101.27;;;26.00;;
3141;SDS011;1581;51.568;6.998;2023-02-22T06:54:31;123.87;;;27.90;;
3141;SDS011;1581;51.568;6.998;2023-02-22T06:57:00;85.83;;;26.00;;
3141;SDS011;1581;51.568;6.998;2023-02-22T06:59:28;50.93;;;23.60;;
3141;SDS011;1581;51.568;6.998;2023-02-22T07:01:56;83.63;;;24.00;;
3141;SDS011;1581;51.568;6.998;2023-02-22T07:04:24;52.47;;;20.63;;
3141;SDS011;1581;51.568;6.998;2023-02-22T07:06:51;119.13;;;21.80;;
3141;SDS011;1581;51.568;6.998;2023-02-22T07:09:19;75.27;;;19.67;;
3141;SDS011;1581;51.568;6.998;2023-02-22T07:11:47;53.23;;;19.33;;
3141;SDS011;1581;51.568;6.998;2023-02-22T07:14:16;66.80;;;17.93;;
3141;SDS011;1581;51.568;6.998;2023-02-22T07:16:44;65.47;;;18.30;;
3141;SDS011;1581;51.568;6.998;2023-02-22T07:19:12;56.83;;;17.63;;
3141;SDS011;1581;51.568;6.998;2023-02-22T07:21:40;58.33;;;17.80;;
3141;SDS011;1581;51.568;6.998;2023-02-22T07:24:08;159.00;;;20.50;;
3141;SDS011;1581;51.568;6.998;2023-02-22T07:26:37;134.57;;;19.50;;
3141;SDS011;1581;51.568;6.998;2023-02-22T07:29:07;133.93;;;21.80;;
3141;SDS011;1581;51.568;6.998;2023-02-22T07:31:37;202.57;;;23.53;;
3141;SDS011;1581;51.568;6.998;2023-02-22T07:34:05;185.90;;;23.73;;
3141;SDS011;1581;51.568;6.998;2023-02-22T07:36:33;102.63;;;20.50;;
3141;SDS011;1581;51.568;6.998;2023-02-22T07:39:01;64.87;;;21.97;;
3141;SDS011;1581;51.568;6.998;2023-02-22T07:41:32;118.13;;;22.30;;
3141;SDS011;1581;51.568;6.998;2023-02-22T07:44:00;283.20;;;26.07;;
3141;SDS011;1581;51.568;6.998;2023-02-22T07:46:28;252.57;;;24.93;;
3141;SDS011;1581;51.568;6.998;2023-02-22T07:48:57;79.30;;;25.27;;
3141;SDS011;1581;51.568;6.998;2023-02-22T07:51:24;65.67;;;24.17;;
3141;SDS011;1581;51.568;6.998;2023-02-22T07:53:52;72.57;;;24.10;;
3141;SDS011;1581;51.568;6.998;2023-02-22T07:56:19;82.17;;;20.47;;
3141;SDS011;1581;51.568;6.998;2023-02-22T07:58:47;98.93;;;22.10;;
3141;SDS011;1581;51.568;6.998;2023-02-22T08:01:15;84.13;;;21.70;;
3141;SDS011;1581;51.568;6.998;2023-02-22T08:03:42;59.20;;;20.60;;
3141;SDS011;1581;51.568;6.998;2023-02-22T08:06:13;64.00;;;21.17;;
3141;SDS011;1581;51.568;6.998;2023-02-22T08:08:40;44.73;;;19.70;;
3141;SDS011;1581;51.568;6.998;2023-02-22T08:11:08;49.37;;;20.57;;
3141;SDS011;1581;51.568;6.998;2023-02-22T08:13:35;55.57;;;19.40;;
3141;SDS011;1581;51.568;6.998;2023-02-22T08:16:04;47.00;;;19.30;;
3141;SDS011;1581;51.568;6.998;2023-02-22T08:18:32;59.67;;;19.03;;
3141;SDS011;1581;51.568;6.998;2023-02-22T08:21:02;73.80;;;18.17;;
3141;SDS011;1581;51.568;6.998;2023-02-22T08:23:32;37.80;;;15.13;;
3141;SDS011;1581;51.568;6.998;2023-02-22T08:26:10;28.63;;;16.40;;
3141;SDS011;1581;51.568;6.998;2023-02-22T08:28:39;33.23;;;16.30;;
3141;SDS011;1581;51.568;6.998;2023-02-22T08:31:07;34.13;;;17.33;;
3141;SDS011;1581;51.568;6.998;2023-02-22T08:33:34;36.07;;;15.90;;
3141;SDS011;1581;51.568;6.998;2023-02-22T08:36:02;34.10;;;17.77;;
3141;SDS011;1581;51.568;6.998;2023-02-22T08:38:32;35.53;;;17.70;;
3141;SDS011;1581;51.568;6.998;2023-02-22T08:41:00;44.37;;;20.07;;
3141;SDS011;1581;51.568;6.998;2023-02-22T08:43:28;36.77;;;18.97;;
3141;SDS011;1581;51.568;6.998;2023-02-22T08:45:56;44.07;;;17.37;;
3141;SDS011;1581;51.568;6.998;2023-02-22T08:48:23;46.37;;;20.80;;
3141;SDS011;1581;51.568;6.998;2023-02-22T08:50:51;47.90;;;21.20;;
3141;SDS011;1581;51.568;6.998;2023-02-22T08:53:19;38.50;;;20.70;;
3141;SDS011;1581;51.568;6.998;2023-02-22T08:55:48;49.00;;;23.13;;
3141;SDS011;1581;51.568;6.998;2023-02-22T08:58:16;51.77;;;23.20;;
3141;SDS011;1581;51.568;6.998;2023-02-22T09:00:44;45.30;;;21.07;;
3141;SDS011;1581;51.568;6.998;2023-02-22T09:03:12;53.70;;;21.13;;
3141;SDS011;1581;51.568;6.998;2023-02-22T09:05:41;40.63;;;20.47;;
3141;SDS011;1581;51.568;6.998;2023-02-22T09:08:09;46.33;;;21.47;;
3141;SDS011;1581;51.568;6.998;2023-02-22T09:10:37;46.20;;;21.70;;
3141;SDS011;1581;51.568;6.998;2023-02-22T09:13:07;43.97;;;21.27;;
3141;SDS011;1581;51.568;6.998;2023-02-22T09:15:35;51.00;;;22.37;;
3141;SDS011;1581;51.568;6.998;2023-02-22T09:18:04;45.23;;;21.23;;
3141;SDS011;1581;51.568;6.998;2023-02-22T09:20:34;37.20;;;20.60;;
3141;SDS011;1581;51.568;6.998;2023-02-22T09:23:03;40.70;;;20.63;;
3141;SDS011;1581;51.568;6.998;2023-02-22T09:25:34;42.30;;;21.07;;
3141;SDS011;1581;51.568;6.998;2023-02-22T09:28:03;33.83;;;18.40;;
3141;SDS011;1581;51.568;6.998;2023-02-22T09:30:33;35.87;;;18.20;;
3141;SDS011;1581;51.568;6.998;2023-02-22T09:33:03;34.57;;;18.60;;
3141;SDS011;1581;51.568;6.998;2023-02-22T09:35:35;33.17;;;18.43;;
3141;SDS011;1581;51.568;6.998;2023-02-22T09:38:06;30.27;;;16.93;;
3141;SDS011;1581;51.568;6.998;2023-02-22T09:40:36;29.43;;;16.90;;
3141;SDS011;1581;51.568;6.998;2023-02-22T09:43:13;36.17;;;17.50;;
3141;SDS011;1581;51.568;6.998;2023-02-22T09:46:00;36.97;;;18.00;;
3141;SDS011;1581;51.568;6.998;2023-02-22T09:48:46;32.70;;;18.40;;
3141;SDS011;1581;51.568;6.998;2023-02-22T09:51:24;29.67;;;16.20;;
3141;SDS011;1581;51.568;6.998;2023-02-22T09:54:00;31.17;;;17.33;;
3141;SDS011;1581;51.568;6.998;2023-02-22T09:56:31;35.77;;;17.30;;
3141;SDS011;1581;51.568;6.998;2023-02-22T09:59:01;30.50;;;16.77;;
3141;SDS011;1581;51.568;6.998;2023-02-22T10:01:33;32.60;;;17.83;;
3141;SDS011;1581;51.568;6.998;2023-02-22T10:04:10;34.50;;;17.57;;
3141;SDS011;1581;51.568;6.998;2023-02-22T10:06:50;31.10;;;18.30;;
3141;SDS011;1581;51.568;6.998;2023-02-22T10:09:30;33.60;;;17.60;;
3141;SDS011;1581;51.568;6.998;2023-02-22T10:12:04;31.67;;;17.20;;
3141;SDS011;1581;51.568;6.998;2023-02-22T10:14:51;38.50;;;20.60;;
3141;SDS011;1581;51.568;6.998;2023-02-22T10:18:01;32.97;;;17.37;;
3141;SDS011;1581;51.568;6.998;2023-02-22T10:20:51;35.50;;;17.53;;
3141;SDS011;1581;51.568;6.998;2023-02-22T10:23:24;29.10;;;16.30;;
3141;SDS011;1581;51.568;6.998;2023-02-22T10:26:03;32.23;;;17.67;;
3141;SDS011;1581;51.568;6.998;2023-02-22T10:28:42;32.33;;;18.13;;
3141;SDS011;1581;51.568;6.998;2023-02-22T10:31:19;33.27;;;15.93;;
3141;SDS011;1581;51.568;6.998;2023-02-22T10:33:54;28.77;;;16.17;;
3141;SDS011;1581;51.568;6.998;2023-02-22T10:36:25;30.10;;;17.67;;
3141;SDS011;1581;51.568;6.998;2023-02-22T10:38:55;32.93;;;17.80;;
3141;SDS011;1581;51.568;6.998;2023-02-22T10:41:27;28.33;;;17.57;;
3141;SDS011;1581;51.568;6.998;2023-02-22T10:43:57;28.50;;;16.13;;
3141;SDS011;1581;51.568;6.998;2023-02-22T10:46:26;26.13;;;16.10;;
3141;SDS011;1581;51.568;6.998;2023-02-22T10:48:59;30.23;;;16.63;;
3141;SDS011;1581;51.568;6.998;2023-02-22T10:51:31;22.10;;;14.90;;
3141;SDS011;1581;51.568;6.998;2023-02-22T10:54:04;21.70;;;13.53;;
3141;SDS011;1581;51.568;6.998;2023-02-22T10:56:49;24.00;;;15.53;;
3141;SDS011;1581;51.568;6.998;2023-02-22T10:59:26;19.00;;;13.07;;
3141;SDS011;1581;51.568;6.998;2023-02-22T11:01:58;24.20;;;13.07;;
3141;SDS011;1581;51.568;6.998;2023-02-22T11:04:28;31.77;;;14.03;;
3141;SDS011;1581;51.568;6.998;2023-02-22T11:07:21;19.40;;;12.20;;
3141;SDS011;1581;51.568;6.998;2023-02-22T11:09:52;24.07;;;13.90;;
3141;SDS011;1581;51.568;6.998;2023-02-22T11:12:28;19.30;;;12.87;;
3141;SDS011;1581;51.568;6.998;2023-02-22T11:14:57;24.93;;;13.20;;
3141;SDS011;1581;51.568;6.998;2023-02-22T11:17:54;20.53;;;12.23;;
3141;SDS011;1581;51.568;6.998;2023-02-22T11:20:26;17.73;;;11.90;;
3141;SDS011;1581;51.568;6.998;2023-02-22T11:23:00;21.87;;;11.93;;
3141;SDS011;1581;51.568;6.998;2023-02-22T11:25:32;22.37;;;12.93;;
3141;SDS011;1581;51.568;6.998;2023-02-22T11:28:06;21.60;;;12.57;;
3141;SDS011;1581;51.568;6.998;2023-02-22T11:30:40;24.70;;;11.43;;
3141;SDS011;1581;51.568;6.998;2023-02-22T11:33:17;18.83;;;11.27;;
3141;SDS011;1581;51.568;6.998;2023-02-22T11:35:49;18.50;;;10.40;;
3141;SDS011;1581;51.568;6.998;2023-02-22T11:38:19;20.07;;;10.80;;
3141;SDS011;1581;51.568;6.998;2023-02-22T11:43:40;14.63;;;10.27;;
3141;SDS011;1581;51.568;6.998;2023-02-22T11:46:12;19.70;;;10.67;;
3141;SDS011;1581;51.568;6.998;2023-02-22T11:48:44;21.53;;;11.00;;
3141;SDS011;1581;51.568;6.998;2023-02-22T11:51:31;16.87;;;10.00;;
3141;SDS011;1581;51.568;6.998;2023-02-22T11:54:17;15.07;;;10.52;;
3141;SDS011;1581;51.568;6.998;2023-02-22T11:57:05;18.45;;;10.95;;
3141;SDS011;1581;51.568;6.998;2023-02-22T11:59:49;19.55;;;10.55;;
3141;SDS011;1581;51.568;6.998;2023-02-22T12:02:47;20.48;;;11.40;;
3141;SDS011;1581;51.568;6.998;2023-02-22T12:05:52;18.58;;;10.13;;
3141;SDS011;1581;51.568;6.998;2023-02-22T12:08:34;16.70;;;10.30;;
3141;SDS011;1581;51.568;6.998;2023-02-22T12:11:12;16.67;;;9.38;;
3141;SDS011;1581;51.568;6.998;2023-02-22T12:13:53;31.15;;;10.43;;
3141;SDS011;1581;51.568;6.998;2023-02-22T12:16:41;16.75;;;9.20;;
3141;SDS011;1581;51.568;6.998;2023-02-22T12:19:34;17.45;;;10.05;;
3141;SDS011;1581;51.568;6.998;2023-02-22T12:22:09;13.82;;;9.77;;
3141;SDS011;1581;51.568;6.998;2023-02-22T12:24:44;16.50;;;10.18;;
3141;SDS011;1581;51.568;6.998;2023-02-22T12:27:17;19.17;;;10.00;;
3141;SDS011;1581;51.568;6.998;2023-02-22T12:29:52;14.75;;;10.00;;
3141;SDS011;1581;51.568;6.998;2023-02-22T12:32:27;14.02;;;9.27;;
3141;SDS011;1581;51.568;6.998;2023-02-22T12:35:07;30.92;;;11.95;;
3141;SDS011;1581;51.568;6.998;2023-02-22T12:37:45;20.52;;;8.10;;
3141;SDS011;1581;51.568;6.998;2023-02-22T12:40:23;14.88;;;8.77;;
3141;SDS011;1581;51.568;6.998;2023-02-22T12:43:00;12.88;;;7.93;;
3141;SDS011;1581;51.568;6.998;2023-02-22T12:45:35;14.90;;;8.13;;
3141;SDS011;1581;51.568;6.998;2023-02-22T12:48:18;12.50;;;7.75;;
3141;SDS011;1581;51.568;6.998;2023-02-22T12:51:14;17.35;;;7.50;;
3141;SDS011;1581;51.568;6.998;2023-02-22T12:53:55;12.88;;;8.57;;
3141;SDS011;1581;51.568;6.998;2023-02-22T12:56:33;26.67;;;9.95;;
3141;SDS011;1581;51.568;6.998;2023-02-22T12:59:08;18.83;;;9.48;;
3141;SDS011;1581;51.568;6.998;2023-02-22T13:01:44;14.60;;;7.32;;
3141;SDS011;1581;51.568;6.998;2023-02-22T13:04:17;12.32;;;6.72;;
3141;SDS011;1581;51.568;6.998;2023-02-22T13:06:51;11.15;;;6.13;;
3141;SDS011;1581;51.568;6.998;2023-02-22T13:10:03;11.85;;;5.53;;
3141;SDS011;1581;51.568;6.998;2023-02-22T13:13:00;8.00;;;5.03;;
3141;SDS011;1581;51.568;6.998;2023-02-22T13:15:42;6.15;;;4.57;;
3141;SDS011;1581;51.568;6.998;2023-02-22T13:18:19;10.10;;;4.88;;
3141;SDS011;1581;51.568;6.998;2023-02-22T13:20:58;12.02;;;4.05;;
3141;SDS011;1581;51.568;6.998;2023-02-22T13:23:35;8.52;;;3.40;;
3141;SDS011;1581;51.568;6.998;2023-02-22T13:26:14;5.75;;;3.90;;
3141;SDS011;1581;51.568;6.998;2023-02-22T13:28:49;7.68;;;4.30;;
3141;SDS011;1581;51.568;6.998;2023-02-22T13:34:36;7.93;;;4.65;;
3141;SDS011;1581;51.568;6.998;2023-02-22T13:37:42;8.32;;;4.68;;
3141;SDS011;1581;51.568;6.998;2023-02-22T13:40:57;8.13;;;4.47;;
3141;SDS011;1581;51.568;6.998;2023-02-22T13:43:45;9.02;;;5.05;;
3141;SDS011;1581;51.568;6.998;2023-02-22T13:46:35;12.70;;;6.15;;
3141;SDS011;1581;51.568;6.998;2023-02-22T13:49:47;9.85;;;4.65;;
3141;SDS011;1581;51.568;6.998;2023-02-22T13:52:49;10.40;;;5.40;;
3141;SDS011;1581;51.568;6.998;2023-02-22T13:55:20;11.80;;;4.68;;
3141;SDS011;1581;51.568;6.998;2023-02-22T13:57:59;11.35;;;4.28;;
3141;SDS011;1581;51.568;6.998;2023-02-22T14:00:44;8.18;;;3.95;;
3141;SDS011;1581;51.568;6.998;2023-02-22T14:06:05;9.25;;;4.18;;
3141;SDS011;1581;51.568;6.998;2023-02-22T14:08:42;6.35;;;4.57;;
3141;SDS011;1581;51.568;6.998;2023-02-22T14:14:22;10.13;;;5.13;;
3141;SDS011;1581;51.568;6.998;2023-02-22T14:20:04;14.02;;;4.78;;
3141;SDS011;1581;51.568;6.998;2023-02-22T14:22:55;10.32;;;4.97;;
3141;SDS011;1581;51.568;6.998;2023-02-22T14:25:46;14.77;;;5.05;;
3141;SDS011;1581;51.568;6.998;2023-02-22T14:31:07;6.63;;;4.75;;
3141;SDS011;1581;51.568;6.998;2023-02-22T14:33:57;11.35;;;4.90;;
3141;SDS011;1581;51.568;6.998;2023-02-22T14:36:38;7.75;;;4.80;;
3141;SDS011;1581;51.568;6.998;2023-02-22T14:39:18;8.82;;;4.93;;
3141;SDS011;1581;51.568;6.998;2023-02-22T14:41:57;9.95;;;5.18;;
3141;SDS011;1581;51.568;6.998;2023-02-22T14:44:32;8.70;;;5.03;;
3141;SDS011;1581;51.568;6.998;2023-02-22T14:47:08;9.32;;;4.88;;
3141;SDS011;1581;51.568;6.998;2023-02-22T14:49:44;8.18;;;4.95;;
3141;SDS011;1581;51.568;6.998;2023-02-22T14:52:17;7.72;;;5.10;;
3141;SDS011;1581;51.568;6.998;2023-02-22T14:54:59;10.80;;;5.78;;
3141;SDS011;1581;51.568;6.998;2023-02-22T14:57:51;13.38;;;6.32;;
3141;SDS011;1581;51.568;6.998;2023-02-22T15:00:35;8.68;;;5.05;;
3141;SDS011;1581;51.568;6.998;2023-02-22T15:03:15;12.77;;;6.25;;
3141;SDS011;1581;51.568;6.998;2023-02-22T15:05:52;10.13;;;5.47;;
3141;SDS011;1581;51.568;6.998;2023-02-22T15:08:23;8.73;;;6.03;;
3141;SDS011;1581;51.568;6.998;2023-02-22T15:10:53;12.13;;;7.07;;
3141;SDS011;1581;51.568;6.998;2023-02-22T15:13:21;14.70;;;7.85;;
3141;SDS011;1581;51.568;6.998;2023-02-22T15:15:53;18.90;;;8.35;;
3141;SDS011;1581;51.568;6.998;2023-02-22T15:18:26;18.07;;;8.97;;
3141;SDS011;1581;51.568;6.998;2023-02-22T15:21:02;20.93;;;10.20;;
3141;SDS011;1581;51.568;6.998;2023-02-22T15:23:38;15.47;;;8.80;;
3141;SDS011;1581;51.568;6.998;2023-02-22T15:26:16;16.43;;;8.87;;
3141;SDS011;1581;51.568;6.998;2023-02-22T15:28:52;15.50;;;7.70;;
3141;SDS011;1581;51.568;6.998;2023-02-22T15:31:23;18.60;;;9.10;;
3141;SDS011;1581;51.568;6.998;2023-02-22T15:34:09;15.60;;;8.20;;
3141;SDS011;1581;51.568;6.998;2023-02-22T15:36:48;18.80;;;10.40;;
3141;SDS011;1581;51.568;6.998;2023-02-22T15:39:19;14.57;;;8.60;;
3141;SDS011;1581;51.568;6.998;2023-02-22T15:42:01;17.23;;;8.60;;
3141;SDS011;1581;51.568;6.998;2023-02-22T15:44:35;14.17;;;9.10;;
3141;SDS011;1581;51.568;6.998;2023-02-22T15:47:05;12.40;;;8.80;;
3141;SDS011;1581;51.568;6.998;2023-02-22T15:49:37;15.43;;;8.23;;
3141;SDS011;1581;51.568;6.998;2023-02-22T15:52:13;29.27;;;8.80;;
3141;SDS011;1581;51.568;6.998;2023-02-22T15:54:46;15.53;;;9.27;;
3141;SDS011;1581;51.568;6.998;2023-02-22T15:57:16;17.30;;;9.23;;